sensor_id;sensor_type;location;lat;lon;timestamp;P1;durP1;ratioP1;P2;durP2;ratioP2
67053;SDS011;53960;51.826;5.850;2023-07-29T00:00:30;13.53;;;7.93;;
67053;SDS011;53960;51.826;5.850;2023-07-29T00:02:55;12.25;;;6.95;;
67053;SDS011;53960;51.826;5.850;2023-07-29T00:05:20;12.53;;;6.80;;
67053;SDS011;53960;51.826;5.850;2023-07-29T00:07:46;11.73;;;6.97;;
67053;SDS011;53960;51.826;5.850;2023-07-29T00:10:11;12.67;;;7.17;;
67053;SDS011;53960;51.826;5.850;2023-07-29T00:12:37;14.67;;;7.90;;
67053;SDS011;53960;51.826;5.850;2023-07-29T00:15:02;13.13;;;7.70;;
67053;SDS011;53960;51.826;5.850;2023-07-29T00:17:28;14.37;;;7.93;;
67053;SDS011;53960;51.826;5.850;2023-07-29T00:19:53;13.83;;;8.10;;
67053;SDS011;53960;51.826;5.850;2023-07-29T00:22:18;15.77;;;8.23;;
67053;SDS011;53960;51.826;5.850;2023-07-29T00:24:44;14.40;;;8.57;;
67053;SDS011;53960;51.826;5.850;2023-07-29T00:27:09;13.93;;;7.87;;
67053;SDS011;53960;51.826;5.850;2023-07-29T00:29:34;14.17;;;7.80;;
67053;SDS011;53960;51.826;5.850;2023-07-29T00:32:00;12.50;;;7.40;;
67053;SDS011;53960;51.826;5.850;2023-07-29T00:34:25;14.50;;;7.73;;
67053;SDS011;53960;51.826;5.850;2023-07-29T00:36:50;14.10;;;7.67;;
67053;SDS011;53960;51.826;5.850;2023-07-29T00:39:15;13.60;;;7.72;;
67053;SDS011;53960;51.826;5.850;2023-07-29T00:41:41;12.07;;;7.10;;
67053;SDS011;53960;51.826;5.850;2023-07-29T00:44:06;15.00;;;7.93;;
67053;SDS011;53960;51.826;5.850;2023-07-29T00:46:33;13.52;;;8.15;;
67053;SDS011;53960;51.826;5.850;2023-07-29T00:49:02;13.63;;;8.00;;
67053;SDS011;53960;51.826;5.850;2023-07-29T00:51:28;13.83;;;8.17;;
67053;SDS011;53960;51.826;5.850;2023-07-29T00:53:53;14.23;;;8.30;;
67053;SDS011;53960;51.826;5.850;2023-07-29T00:56:18;12.93;;;8.20;;
67053;SDS011;53960;51.826;5.850;2023-07-29T00:58:44;13.13;;;8.43;;
67053;SDS011;53960;51.826;5.850;2023-07-29T01:01:10;13.20;;;8.27;;
67053;SDS011;53960;51.826;5.850;2023-07-29T01:03:36;14.57;;;8.33;;
67053;SDS011;53960;51.826;5.850;2023-07-29T01:08:46;13.40;;;8.07;;
67053;SDS011;53960;51.826;5.850;2023-07-29T01:11:26;14.37;;;7.83;;
67053;SDS011;53960;51.826;5.850;2023-07-29T01:13:58;13.55;;;8.52;;
67053;SDS011;53960;51.826;5.850;2023-07-29T01:16:38;13.88;;;8.27;;
67053;SDS011;53960;51.826;5.850;2023-07-29T01:19:07;16.17;;;8.20;;
67053;SDS011;53960;51.826;5.850;2023-07-29T01:21:41;13.20;;;8.48;;
67053;SDS011;53960;51.826;5.850;2023-07-29T01:24:07;13.67;;;8.77;;
67053;SDS011;53960;51.826;5.850;2023-07-29T01:26:32;13.67;;;8.40;;
67053;SDS011;53960;51.826;5.850;2023-07-29T01:28:57;14.30;;;7.60;;
67053;SDS011;53960;51.826;5.850;2023-07-29T01:31:27;15.48;;;8.13;;
67053;SDS011;53960;51.826;5.850;2023-07-29T01:34:02;12.38;;;8.10;;
67053;SDS011;53960;51.826;5.850;2023-07-29T01:36:40;12.83;;;7.67;;
67053;SDS011;53960;51.826;5.850;2023-07-29T01:39:07;15.77;;;7.90;;
67053;SDS011;53960;51.826;5.850;2023-07-29T01:41:36;12.65;;;7.80;;
67053;SDS011;53960;51.826;5.850;2023-07-29T01:44:02;14.60;;;8.27;;
67053;SDS011;53960;51.826;5.850;2023-07-29T01:46:28;12.70;;;7.63;;
67053;SDS011;53960;51.826;5.850;2023-07-29T01:48:53;13.10;;;8.50;;
67053;SDS011;53960;51.826;5.850;2023-07-29T01:51:19;13.43;;;8.17;;
67053;SDS011;53960;51.826;5.850;2023-07-29T01:53:45;14.57;;;8.35;;
67053;SDS011;53960;51.826;5.850;2023-07-29T01:56:11;14.73;;;8.57;;
67053;SDS011;53960;51.826;5.850;2023-07-29T01:58:36;13.83;;;8.53;;
67053;SDS011;53960;51.826;5.850;2023-07-29T02:01:01;14.07;;;8.37;;
67053;SDS011;53960;51.826;5.850;2023-07-29T02:03:27;13.90;;;8.60;;
67053;SDS011;53960;51.826;5.850;2023-07-29T02:05:53;13.57;;;9.02;;
67053;SDS011;53960;51.826;5.850;2023-07-29T02:08:18;15.60;;;8.73;;
67053;SDS011;53960;51.826;5.850;2023-07-29T02:10:43;17.27;;;9.67;;
67053;SDS011;53960;51.826;5.850;2023-07-29T02:13:10;15.48;;;9.70;;
67053;SDS011;53960;51.826;5.850;2023-07-29T02:15:35;15.60;;;9.50;;
67053;SDS011;53960;51.826;5.850;2023-07-29T02:18:01;17.27;;;9.40;;
67053;SDS011;53960;51.826;5.850;2023-07-29T02:20:27;17.50;;;9.77;;
67053;SDS011;53960;51.826;5.850;2023-07-29T02:22:52;15.77;;;9.27;;
67053;SDS011;53960;51.826;5.850;2023-07-29T02:25:17;16.13;;;9.77;;
67053;SDS011;53960;51.826;5.850;2023-07-29T02:27:43;18.10;;;9.20;;
67053;SDS011;53960;51.826;5.850;2023-07-29T02:30:08;17.63;;;9.53;;
67053;SDS011;53960;51.826;5.850;2023-07-29T02:32:37;16.27;;;9.30;;
67053;SDS011;53960;51.826;5.850;2023-07-29T02:35:03;17.40;;;9.90;;
67053;SDS011;53960;51.826;5.850;2023-07-29T02:37:29;15.77;;;8.45;;
67053;SDS011;53960;51.826;5.850;2023-07-29T02:39:55;15.90;;;8.60;;
67053;SDS011;53960;51.826;5.850;2023-07-29T02:42:20;15.10;;;8.60;;
67053;SDS011;53960;51.826;5.850;2023-07-29T02:44:46;13.90;;;7.83;;
67053;SDS011;53960;51.826;5.850;2023-07-29T02:47:11;14.33;;;7.20;;
67053;SDS011;53960;51.826;5.850;2023-07-29T02:49:37;13.57;;;6.47;;
67053;SDS011;53960;51.826;5.850;2023-07-29T02:52:02;13.63;;;7.37;;
67053;SDS011;53960;51.826;5.850;2023-07-29T02:54:28;12.03;;;6.50;;
67053;SDS011;53960;51.826;5.850;2023-07-29T02:56:53;11.40;;;6.10;;
67053;SDS011;53960;51.826;5.850;2023-07-29T02:59:19;13.10;;;6.20;;
67053;SDS011;53960;51.826;5.850;2023-07-29T03:01:45;12.97;;;6.40;;
67053;SDS011;53960;51.826;5.850;2023-07-29T03:04:10;11.75;;;5.93;;
67053;SDS011;53960;51.826;5.850;2023-07-29T03:06:38;13.43;;;6.20;;
67053;SDS011;53960;51.826;5.850;2023-07-29T03:09:03;11.43;;;5.67;;
67053;SDS011;53960;51.826;5.850;2023-07-29T03:11:28;11.57;;;5.27;;
67053;SDS011;53960;51.826;5.850;2023-07-29T03:13:54;9.93;;;4.77;;
67053;SDS011;53960;51.826;5.850;2023-07-29T03:16:19;10.03;;;4.77;;
67053;SDS011;53960;51.826;5.850;2023-07-29T03:18:45;11.48;;;4.57;;
67053;SDS011;53960;51.826;5.850;2023-07-29T03:21:10;10.30;;;4.10;;
67053;SDS011;53960;51.826;5.850;2023-07-29T03:23:36;10.07;;;4.20;;
67053;SDS011;53960;51.826;5.850;2023-07-29T03:26:03;10.27;;;3.85;;
67053;SDS011;53960;51.826;5.850;2023-07-29T03:28:36;8.98;;;4.15;;
67053;SDS011;53960;51.826;5.850;2023-07-29T03:31:05;9.27;;;4.03;;
67053;SDS011;53960;51.826;5.850;2023-07-29T03:33:31;9.33;;;4.40;;
67053;SDS011;53960;51.826;5.850;2023-07-29T03:35:56;11.00;;;4.40;;
67053;SDS011;53960;51.826;5.850;2023-07-29T03:38:21;9.47;;;4.50;;
67053;SDS011;53960;51.826;5.850;2023-07-29T03:40:47;10.30;;;3.67;;
67053;SDS011;53960;51.826;5.850;2023-07-29T03:43:12;9.37;;;3.77;;
67053;SDS011;53960;51.826;5.850;2023-07-29T03:45:39;8.33;;;3.90;;
67053;SDS011;53960;51.826;5.850;2023-07-29T03:48:05;9.75;;;4.10;;
67053;SDS011;53960;51.826;5.850;2023-07-29T03:50:32;10.30;;;3.85;;
67053;SDS011;53960;51.826;5.850;2023-07-29T03:52:58;8.65;;;3.70;;
67053;SDS011;53960;51.826;5.850;2023-07-29T03:55:24;10.73;;;3.40;;
67053;SDS011;53960;51.826;5.850;2023-07-29T03:57:49;8.37;;;3.33;;
67053;SDS011;53960;51.826;5.850;2023-07-29T04:00:14;9.00;;;3.30;;
67053;SDS011;53960;51.826;5.850;2023-07-29T04:02:41;8.40;;;3.20;;
67053;SDS011;53960;51.826;5.850;2023-07-29T04:05:07;9.53;;;3.27;;
67053;SDS011;53960;51.826;5.850;2023-07-29T04:07:33;7.97;;;3.50;;
67053;SDS011;53960;51.826;5.850;2023-07-29T04:10:00;7.70;;;2.97;;
67053;SDS011;53960;51.826;5.850;2023-07-29T04:12:26;9.18;;;3.13;;
67053;SDS011;53960;51.826;5.850;2023-07-29T04:14:51;8.47;;;3.10;;
67053;SDS011;53960;51.826;5.850;2023-07-29T04:17:16;9.53;;;3.13;;
67053;SDS011;53960;51.826;5.850;2023-07-29T04:19:41;8.83;;;2.90;;
67053;SDS011;53960;51.826;5.850;2023-07-29T04:22:07;7.80;;;2.60;;
67053;SDS011;53960;51.826;5.850;2023-07-29T04:24:32;6.93;;;2.60;;
67053;SDS011;53960;51.826;5.850;2023-07-29T04:26:57;8.05;;;2.55;;
67053;SDS011;53960;51.826;5.850;2023-07-29T04:29:23;7.40;;;2.67;;
67053;SDS011;53960;51.826;5.850;2023-07-29T04:31:51;6.93;;;2.20;;
67053;SDS011;53960;51.826;5.850;2023-07-29T04:34:17;6.63;;;2.20;;
67053;SDS011;53960;51.826;5.850;2023-07-29T04:36:44;7.40;;;2.80;;
67053;SDS011;53960;51.826;5.850;2023-07-29T04:39:10;7.07;;;2.30;;
67053;SDS011;53960;51.826;5.850;2023-07-29T04:41:35;8.98;;;2.35;;
67053;SDS011;53960;51.826;5.850;2023-07-29T04:44:01;8.30;;;2.53;;
67053;SDS011;53960;51.826;5.850;2023-07-29T04:46:26;8.43;;;2.23;;
67053;SDS011;53960;51.826;5.850;2023-07-29T04:48:51;7.60;;;2.70;;
67053;SDS011;53960;51.826;5.850;2023-07-29T04:51:17;7.53;;;2.30;;
67053;SDS011;53960;51.826;5.850;2023-07-29T04:53:42;7.60;;;2.77;;
67053;SDS011;53960;51.826;5.850;2023-07-29T04:56:07;9.77;;;2.87;;
67053;SDS011;53960;51.826;5.850;2023-07-29T04:58:33;8.50;;;2.80;;
67053;SDS011;53960;51.826;5.850;2023-07-29T05:01:00;7.13;;;2.53;;
67053;SDS011;53960;51.826;5.850;2023-07-29T05:03:26;8.10;;;3.10;;
67053;SDS011;53960;51.826;5.850;2023-07-29T05:05:51;8.17;;;3.00;;
67053;SDS011;53960;51.826;5.850;2023-07-29T05:08:18;9.38;;;3.25;;
67053;SDS011;53960;51.826;5.850;2023-07-29T05:10:44;8.60;;;3.10;;
67053;SDS011;53960;51.826;5.850;2023-07-29T05:13:09;8.40;;;3.00;;
67053;SDS011;53960;51.826;5.850;2023-07-29T05:15:35;8.63;;;3.03;;
67053;SDS011;53960;51.826;5.850;2023-07-29T05:18:00;10.18;;;3.50;;
67053;SDS011;53960;51.826;5.850;2023-07-29T05:20:25;8.83;;;3.43;;
67053;SDS011;53960;51.826;5.850;2023-07-29T05:22:51;8.60;;;3.27;;
67053;SDS011;53960;51.826;5.850;2023-07-29T05:25:16;8.37;;;3.33;;
67053;SDS011;53960;51.826;5.850;2023-07-29T05:27:41;9.50;;;3.00;;
67053;SDS011;53960;51.826;5.850;2023-07-29T05:30:07;8.90;;;3.40;;
67053;SDS011;53960;51.826;5.850;2023-07-29T05:32:33;9.48;;;3.60;;
67053;SDS011;53960;51.826;5.850;2023-07-29T05:34:58;8.20;;;3.13;;
67053;SDS011;53960;51.826;5.850;2023-07-29T05:37:23;10.20;;;3.73;;
67053;SDS011;53960;51.826;5.850;2023-07-29T05:39:49;9.30;;;3.27;;
67053;SDS011;53960;51.826;5.850;2023-07-29T05:42:14;9.48;;;3.50;;
67053;SDS011;53960;51.826;5.850;2023-07-29T05:44:39;8.80;;;3.30;;
67053;SDS011;53960;51.826;5.850;2023-07-29T05:47:05;10.10;;;4.00;;
67053;SDS011;53960;51.826;5.850;2023-07-29T05:49:30;9.37;;;3.80;;
67053;SDS011;53960;51.826;5.850;2023-07-29T05:51:56;8.90;;;3.43;;
67053;SDS011;53960;51.826;5.850;2023-07-29T05:54:21;8.40;;;3.50;;
67053;SDS011;53960;51.826;5.850;2023-07-29T05:56:46;11.17;;;4.03;;
67053;SDS011;53960;51.826;5.850;2023-07-29T05:59:12;9.10;;;3.33;;
67053;SDS011;53960;51.826;5.850;2023-07-29T06:01:37;9.93;;;3.70;;
67053;SDS011;53960;51.826;5.850;2023-07-29T06:04:03;11.80;;;3.63;;
67053;SDS011;53960;51.826;5.850;2023-07-29T06:06:28;10.60;;;3.42;;
67053;SDS011;53960;51.826;5.850;2023-07-29T06:08:54;9.23;;;3.40;;
67053;SDS011;53960;51.826;5.850;2023-07-29T06:11:19;10.77;;;3.97;;
67053;SDS011;53960;51.826;5.850;2023-07-29T06:13:45;9.00;;;3.70;;
67053;SDS011;53960;51.826;5.850;2023-07-29T06:16:12;9.38;;;3.58;;
67053;SDS011;53960;51.826;5.850;2023-07-29T06:18:37;9.77;;;3.63;;
67053;SDS011;53960;51.826;5.850;2023-07-29T06:21:03;7.77;;;3.40;;
67053;SDS011;53960;51.826;5.850;2023-07-29T06:23:32;10.10;;;3.70;;
67053;SDS011;53960;51.826;5.850;2023-07-29T06:25:58;11.93;;;4.33;;
67053;SDS011;53960;51.826;5.850;2023-07-29T06:28:25;9.52;;;3.65;;
67053;SDS011;53960;51.826;5.850;2023-07-29T06:30:51;9.68;;;3.58;;
67053;SDS011;53960;51.826;5.850;2023-07-29T06:33:16;9.07;;;3.40;;
67053;SDS011;53960;51.826;5.850;2023-07-29T06:35:41;8.17;;;3.07;;
67053;SDS011;53960;51.826;5.850;2023-07-29T06:38:07;7.93;;;2.90;;
67053;SDS011;53960;51.826;5.850;2023-07-29T06:40:32;9.47;;;2.73;;
67053;SDS011;53960;51.826;5.850;2023-07-29T06:42:57;8.50;;;3.10;;
67053;SDS011;53960;51.826;5.850;2023-07-29T06:45:23;8.17;;;3.13;;
67053;SDS011;53960;51.826;5.850;2023-07-29T06:47:48;8.33;;;3.10;;
67053;SDS011;53960;51.826;5.850;2023-07-29T06:50:13;9.20;;;3.30;;
67053;SDS011;53960;51.826;5.850;2023-07-29T06:52:39;10.50;;;3.80;;
67053;SDS011;53960;51.826;5.850;2023-07-29T06:55:05;10.02;;;3.28;;
67053;SDS011;53960;51.826;5.850;2023-07-29T06:57:31;9.88;;;3.08;;
67053;SDS011;53960;51.826;5.850;2023-07-29T06:59:56;9.73;;;3.00;;
67053;SDS011;53960;51.826;5.850;2023-07-29T07:02:21;11.43;;;3.73;;
67053;SDS011;53960;51.826;5.850;2023-07-29T07:04:47;9.47;;;4.00;;
67053;SDS011;53960;51.826;5.850;2023-07-29T07:07:12;8.63;;;4.10;;
67053;SDS011;53960;51.826;5.850;2023-07-29T07:09:37;9.63;;;3.97;;
67053;SDS011;53960;51.826;5.850;2023-07-29T07:12:03;8.80;;;3.55;;
67053;SDS011;53960;51.826;5.850;2023-07-29T07:14:28;10.20;;;4.73;;
67053;SDS011;53960;51.826;5.850;2023-07-29T07:16:54;9.90;;;4.40;;
67053;SDS011;53960;51.826;5.850;2023-07-29T07:19:19;8.60;;;4.17;;
67053;SDS011;53960;51.826;5.850;2023-07-29T07:21:45;9.50;;;4.32;;
67053;SDS011;53960;51.826;5.850;2023-07-29T07:24:10;11.10;;;4.33;;
67053;SDS011;53960;51.826;5.850;2023-07-29T07:26:36;10.63;;;4.83;;
67053;SDS011;53960;51.826;5.850;2023-07-29T07:29:01;8.80;;;4.37;;
67053;SDS011;53960;51.826;5.850;2023-07-29T07:31:27;8.82;;;4.53;;
67053;SDS011;53960;51.826;5.850;2023-07-29T07:33:52;9.20;;;4.37;;
67053;SDS011;53960;51.826;5.850;2023-07-29T07:36:17;10.77;;;5.30;;
67053;SDS011;53960;51.826;5.850;2023-07-29T07:38:43;10.43;;;4.37;;
67053;SDS011;53960;51.826;5.850;2023-07-29T07:41:08;9.00;;;5.00;;
67053;SDS011;53960;51.826;5.850;2023-07-29T07:43:33;9.83;;;4.80;;
67053;SDS011;53960;51.826;5.850;2023-07-29T07:45:59;10.02;;;4.53;;
67053;SDS011;53960;51.826;5.850;2023-07-29T07:48:26;10.20;;;4.90;;
67053;SDS011;53960;51.826;5.850;2023-07-29T07:50:51;9.13;;;4.45;;
67053;SDS011;53960;51.826;5.850;2023-07-29T07:53:17;8.70;;;4.23;;
67053;SDS011;53960;51.826;5.850;2023-07-29T07:55:42;10.90;;;4.33;;
67053;SDS011;53960;51.826;5.850;2023-07-29T07:58:07;8.83;;;4.43;;
67053;SDS011;53960;51.826;5.850;2023-07-29T08:00:33;10.60;;;4.63;;
67053;SDS011;53960;51.826;5.850;2023-07-29T08:02:58;8.87;;;3.50;;
67053;SDS011;53960;51.826;5.850;2023-07-29T08:05:23;8.60;;;3.43;;
67053;SDS011;53960;51.826;5.850;2023-07-29T08:07:49;7.33;;;2.87;;
67053;SDS011;53960;51.826;5.850;2023-07-29T08:10:14;7.87;;;2.80;;
67053;SDS011;53960;51.826;5.850;2023-07-29T08:12:39;7.77;;;2.83;;
67053;SDS011;53960;51.826;5.850;2023-07-29T08:15:05;8.57;;;2.50;;
67053;SDS011;53960;51.826;5.850;2023-07-29T08:17:30;7.87;;;2.93;;
67053;SDS011;53960;51.826;5.850;2023-07-29T08:19:56;7.10;;;2.47;;
67053;SDS011;53960;51.826;5.850;2023-07-29T08:22:21;7.20;;;2.70;;
67053;SDS011;53960;51.826;5.850;2023-07-29T08:24:46;8.38;;;2.67;;
67053;SDS011;53960;51.826;5.850;2023-07-29T08:27:12;8.07;;;2.60;;
67053;SDS011;53960;51.826;5.850;2023-07-29T08:29:37;6.20;;;2.23;;
67053;SDS011;53960;51.826;5.850;2023-07-29T08:32:02;7.40;;;2.77;;
67053;SDS011;53960;51.826;5.850;2023-07-29T08:34:28;6.70;;;2.63;;
67053;SDS011;53960;51.826;5.850;2023-07-29T08:36:53;8.60;;;2.50;;
67053;SDS011;53960;51.826;5.850;2023-07-29T08:39:19;8.57;;;2.63;;
67053;SDS011;53960;51.826;5.850;2023-07-29T08:41:46;7.53;;;2.20;;
67053;SDS011;53960;51.826;5.850;2023-07-29T08:44:22;7.35;;;2.50;;
67053;SDS011;53960;51.826;5.850;2023-07-29T08:46:49;7.37;;;2.37;;
67053;SDS011;53960;51.826;5.850;2023-07-29T08:49:15;6.97;;;2.17;;
67053;SDS011;53960;51.826;5.850;2023-07-29T08:51:44;7.90;;;2.42;;
67053;SDS011;53960;51.826;5.850;2023-07-29T08:54:11;7.60;;;2.35;;
67053;SDS011;53960;51.826;5.850;2023-07-29T08:56:37;7.30;;;2.65;;
67053;SDS011;53960;51.826;5.850;2023-07-29T08:59:03;8.97;;;2.60;;
67053;SDS011;53960;51.826;5.850;2023-07-29T09:01:30;7.03;;;2.33;;
67053;SDS011;53960;51.826;5.850;2023-07-29T09:03:55;7.05;;;2.70;;
67053;SDS011;53960;51.826;5.850;2023-07-29T09:06:21;7.10;;;2.73;;
67053;SDS011;53960;51.826;5.850;2023-07-29T09:08:48;7.85;;;2.67;;
67053;SDS011;53960;51.826;5.850;2023-07-29T09:11:15;6.85;;;2.60;;
67053;SDS011;53960;51.826;5.850;2023-07-29T09:13:42;6.63;;;2.70;;
67053;SDS011;53960;51.826;5.850;2023-07-29T09:16:08;6.87;;;2.70;;
67053;SDS011;53960;51.826;5.850;2023-07-29T09:18:34;7.10;;;2.42;;
67053;SDS011;53960;51.826;5.850;2023-07-29T09:20:59;6.70;;;2.73;;
67053;SDS011;53960;51.826;5.850;2023-07-29T09:23:26;8.73;;;3.47;;
67053;SDS011;53960;51.826;5.850;2023-07-29T09:25:52;8.57;;;3.10;;
67053;SDS011;53960;51.826;5.850;2023-07-29T09:28:28;7.15;;;3.10;;
67053;SDS011;53960;51.826;5.850;2023-07-29T09:30:58;9.13;;;3.63;;
67053;SDS011;53960;51.826;5.850;2023-07-29T09:33:25;7.72;;;3.30;;
67053;SDS011;53960;51.826;5.850;2023-07-29T09:35:51;7.43;;;3.27;;
67053;SDS011;53960;51.826;5.850;2023-07-29T09:38:16;7.20;;;3.38;;
67053;SDS011;53960;51.826;5.850;2023-07-29T09:40:42;7.03;;;3.13;;
67053;SDS011;53960;51.826;5.850;2023-07-29T09:43:10;8.45;;;3.75;;
67053;SDS011;53960;51.826;5.850;2023-07-29T09:45:36;8.17;;;3.67;;
67053;SDS011;53960;51.826;5.850;2023-07-29T09:48:02;9.25;;;3.55;;
67053;SDS011;53960;51.826;5.850;2023-07-29T09:50:30;7.35;;;3.95;;
67053;SDS011;53960;51.826;5.850;2023-07-29T09:52:56;8.67;;;3.63;;
67053;SDS011;53960;51.826;5.850;2023-07-29T09:55:25;7.72;;;3.80;;
67053;SDS011;53960;51.826;5.850;2023-07-29T09:57:58;7.72;;;3.20;;
67053;SDS011;53960;51.826;5.850;2023-07-29T10:00:30;7.17;;;3.27;;
67053;SDS011;53960;51.826;5.850;2023-07-29T10:02:57;7.20;;;3.60;;
67053;SDS011;53960;51.826;5.850;2023-07-29T10:05:25;6.95;;;3.40;;
67053;SDS011;53960;51.826;5.850;2023-07-29T10:07:51;7.60;;;3.22;;
67053;SDS011;53960;51.826;5.850;2023-07-29T10:10:18;6.97;;;3.00;;
67053;SDS011;53960;51.826;5.850;2023-07-29T10:12:45;7.30;;;2.63;;
67053;SDS011;53960;51.826;5.850;2023-07-29T10:15:11;7.57;;;2.60;;
67053;SDS011;53960;51.826;5.850;2023-07-29T10:17:37;6.70;;;2.40;;
67053;SDS011;53960;51.826;5.850;2023-07-29T10:20:04;7.88;;;2.67;;
67053;SDS011;53960;51.826;5.850;2023-07-29T10:22:41;6.30;;;1.90;;
67053;SDS011;53960;51.826;5.850;2023-07-29T10:25:08;6.68;;;2.25;;
67053;SDS011;53960;51.826;5.850;2023-07-29T10:27:43;5.68;;;1.80;;
67053;SDS011;53960;51.826;5.850;2023-07-29T10:30:12;7.50;;;1.85;;
67053;SDS011;53960;51.826;5.850;2023-07-29T10:32:44;5.82;;;1.77;;
67053;SDS011;53960;51.826;5.850;2023-07-29T10:35:13;6.03;;;1.77;;
67053;SDS011;53960;51.826;5.850;2023-07-29T10:37:39;5.80;;;1.50;;
67053;SDS011;53960;51.826;5.850;2023-07-29T10:40:08;5.45;;;1.48;;
67053;SDS011;53960;51.826;5.850;2023-07-29T10:42:35;5.68;;;1.50;;
67053;SDS011;53960;51.826;5.850;2023-07-29T10:45:16;5.38;;;1.55;;
67053;SDS011;53960;51.826;5.850;2023-07-29T10:47:44;6.10;;;1.90;;
67053;SDS011;53960;51.826;5.850;2023-07-29T10:50:16;6.63;;;1.90;;
67053;SDS011;53960;51.826;5.850;2023-07-29T10:52:43;6.33;;;1.53;;
67053;SDS011;53960;51.826;5.850;2023-07-29T10:57:50;6.10;;;1.30;;
67053;SDS011;53960;51.826;5.850;2023-07-29T11:00:18;5.70;;;1.40;;
67053;SDS011;53960;51.826;5.850;2023-07-29T11:02:47;5.18;;;1.20;;
67053;SDS011;53960;51.826;5.850;2023-07-29T11:05:24;4.95;;;1.33;;
67053;SDS011;53960;51.826;5.850;2023-07-29T11:07:49;5.63;;;1.37;;
67053;SDS011;53960;51.826;5.850;2023-07-29T11:10:15;6.35;;;1.35;;
67053;SDS011;53960;51.826;5.850;2023-07-29T11:12:41;6.43;;;1.53;;
67053;SDS011;53960;51.826;5.850;2023-07-29T11:17:47;5.97;;;1.45;;
67053;SDS011;53960;51.826;5.850;2023-07-29T11:20:26;7.82;;;1.73;;
67053;SDS011;53960;51.826;5.850;2023-07-29T11:22:53;6.00;;;1.30;;
67053;SDS011;53960;51.826;5.850;2023-07-29T11:25:20;5.20;;;1.50;;
67053;SDS011;53960;51.826;5.850;2023-07-29T11:27:47;5.65;;;1.67;;
67053;SDS011;53960;51.826;5.850;2023-07-29T11:30:13;5.50;;;1.50;;
67053;SDS011;53960;51.826;5.850;2023-07-29T11:32:40;6.03;;;1.30;;
67053;SDS011;53960;51.826;5.850;2023-07-29T11:35:11;6.95;;;1.80;;
67053;SDS011;53960;51.826;5.850;2023-07-29T11:37:41;5.80;;;1.45;;
67053;SDS011;53960;51.826;5.850;2023-07-29T11:40:08;6.00;;;1.65;;
67053;SDS011;53960;51.826;5.850;2023-07-29T11:42:37;6.18;;;1.30;;
67053;SDS011;53960;51.826;5.850;2023-07-29T11:45:03;6.60;;;1.77;;
67053;SDS011;53960;51.826;5.850;2023-07-29T11:47:31;6.90;;;1.80;;
67053;SDS011;53960;51.826;5.850;2023-07-29T11:50:01;6.80;;;1.67;;
67053;SDS011;53960;51.826;5.850;2023-07-29T11:52:27;6.07;;;1.87;;
67053;SDS011;53960;51.826;5.850;2023-07-29T11:54:52;6.50;;;2.03;;
67053;SDS011;53960;51.826;5.850;2023-07-29T11:57:18;5.90;;;1.60;;
67053;SDS011;53960;51.826;5.850;2023-07-29T11:59:45;9.35;;;2.20;;
67053;SDS011;53960;51.826;5.850;2023-07-29T12:02:20;6.30;;;1.60;;
67053;SDS011;53960;51.826;5.850;2023-07-29T12:04:48;9.07;;;2.00;;
67053;SDS011;53960;51.826;5.850;2023-07-29T12:07:14;10.30;;;2.00;;
67053;SDS011;53960;51.826;5.850;2023-07-29T12:09:41;9.40;;;1.85;;
67053;SDS011;53960;51.826;5.850;2023-07-29T12:12:07;6.50;;;1.88;;
67053;SDS011;53960;51.826;5.850;2023-07-29T12:14:34;6.15;;;1.20;;
67053;SDS011;53960;51.826;5.850;2023-07-29T12:17:00;5.50;;;1.20;;
67053;SDS011;53960;51.826;5.850;2023-07-29T12:19:37;5.75;;;1.20;;
67053;SDS011;53960;51.826;5.850;2023-07-29T12:22:03;5.75;;;1.25;;
67053;SDS011;53960;51.826;5.850;2023-07-29T12:24:30;4.70;;;1.00;;
67053;SDS011;53960;51.826;5.850;2023-07-29T12:26:57;5.77;;;1.10;;
67053;SDS011;53960;51.826;5.850;2023-07-29T12:29:22;5.60;;;1.10;;
67053;SDS011;53960;51.826;5.850;2023-07-29T12:31:48;7.10;;;1.90;;
67053;SDS011;53960;51.826;5.850;2023-07-29T12:34:21;5.55;;;1.17;;
67053;SDS011;53960;51.826;5.850;2023-07-29T12:36:50;5.57;;;1.40;;
67053;SDS011;53960;51.826;5.850;2023-07-29T12:39:17;6.17;;;1.20;;
67053;SDS011;53960;51.826;5.850;2023-07-29T12:41:48;4.78;;;1.10;;
67053;SDS011;53960;51.826;5.850;2023-07-29T12:44:14;5.63;;;1.30;;
67053;SDS011;53960;51.826;5.850;2023-07-29T12:46:39;6.00;;;1.43;;
67053;SDS011;53960;51.826;5.850;2023-07-29T12:49:05;5.05;;;1.40;;
67053;SDS011;53960;51.826;5.850;2023-07-29T12:51:30;4.67;;;1.30;;
67053;SDS011;53960;51.826;5.850;2023-07-29T12:53:56;6.35;;;1.80;;
67053;SDS011;53960;51.826;5.850;2023-07-29T12:56:22;6.20;;;1.67;;
67053;SDS011;53960;51.826;5.850;2023-07-29T12:58:47;6.17;;;1.77;;
67053;SDS011;53960;51.826;5.850;2023-07-29T13:01:13;6.37;;;2.00;;
67053;SDS011;53960;51.826;5.850;2023-07-29T13:03:42;6.90;;;2.38;;
67053;SDS011;53960;51.826;5.850;2023-07-29T13:06:07;6.85;;;2.50;;
67053;SDS011;53960;51.826;5.850;2023-07-29T13:08:33;7.30;;;2.40;;
67053;SDS011;53960;51.826;5.850;2023-07-29T13:10:58;7.77;;;2.20;;
67053;SDS011;53960;51.826;5.850;2023-07-29T13:13:23;6.83;;;2.30;;
67053;SDS011;53960;51.826;5.850;2023-07-29T13:15:49;7.10;;;2.20;;
67053;SDS011;53960;51.826;5.850;2023-07-29T13:18:14;8.50;;;2.13;;
67053;SDS011;53960;51.826;5.850;2023-07-29T13:20:39;7.10;;;2.27;;
67053;SDS011;53960;51.826;5.850;2023-07-29T13:23:05;6.57;;;2.33;;
67053;SDS011;53960;51.826;5.850;2023-07-29T13:25:30;7.13;;;2.53;;
67053;SDS011;53960;51.826;5.850;2023-07-29T13:27:56;6.77;;;2.30;;
67053;SDS011;53960;51.826;5.850;2023-07-29T13:30:21;7.23;;;2.07;;
67053;SDS011;53960;51.826;5.850;2023-07-29T13:32:46;6.38;;;2.15;;
67053;SDS011;53960;51.826;5.850;2023-07-29T13:35:12;6.33;;;2.27;;
67053;SDS011;53960;51.826;5.850;2023-07-29T13:37:37;7.07;;;2.20;;
67053;SDS011;53960;51.826;5.850;2023-07-29T13:40:02;7.03;;;2.60;;
67053;SDS011;53960;51.826;5.850;2023-07-29T13:42:28;6.50;;;2.70;;
67053;SDS011;53960;51.826;5.850;2023-07-29T13:44:53;7.03;;;2.80;;
67053;SDS011;53960;51.826;5.850;2023-07-29T13:47:19;7.73;;;3.13;;
67053;SDS011;53960;51.826;5.850;2023-07-29T13:49:44;7.30;;;2.67;;
67053;SDS011;53960;51.826;5.850;2023-07-29T13:52:09;6.80;;;2.50;;
67053;SDS011;53960;51.826;5.850;2023-07-29T13:54:35;7.87;;;2.70;;
67053;SDS011;53960;51.826;5.850;2023-07-29T13:57:00;6.20;;;2.17;;
67053;SDS011;53960;51.826;5.850;2023-07-29T13:59:25;6.80;;;2.50;;
67053;SDS011;53960;51.826;5.850;2023-07-29T14:01:51;7.20;;;2.43;;
67053;SDS011;53960;51.826;5.850;2023-07-29T14:04:16;7.13;;;2.40;;
67053;SDS011;53960;51.826;5.850;2023-07-29T14:06:41;7.40;;;2.90;;
67053;SDS011;53960;51.826;5.850;2023-07-29T14:09:07;7.20;;;2.77;;
67053;SDS011;53960;51.826;5.850;2023-07-29T14:11:32;7.20;;;2.87;;
67053;SDS011;53960;51.826;5.850;2023-07-29T14:13:58;7.68;;;2.80;;
67053;SDS011;53960;51.826;5.850;2023-07-29T14:16:23;7.23;;;2.80;;
67053;SDS011;53960;51.826;5.850;2023-07-29T14:18:48;7.50;;;3.30;;
67053;SDS011;53960;51.826;5.850;2023-07-29T14:21:14;7.97;;;3.07;;
67053;SDS011;53960;51.826;5.850;2023-07-29T14:23:40;7.82;;;2.83;;
67053;SDS011;53960;51.826;5.850;2023-07-29T14:26:06;7.20;;;3.00;;
67053;SDS011;53960;51.826;5.850;2023-07-29T14:28:34;8.27;;;3.00;;
67053;SDS011;53960;51.826;5.850;2023-07-29T14:31:00;7.70;;;2.80;;
67053;SDS011;53960;51.826;5.850;2023-07-29T14:33:25;7.85;;;2.70;;
67053;SDS011;53960;51.826;5.850;2023-07-29T14:35:51;6.40;;;2.60;;
67053;SDS011;53960;51.826;5.850;2023-07-29T14:38:16;7.53;;;2.60;;
67053;SDS011;53960;51.826;5.850;2023-07-29T14:40:42;7.37;;;2.57;;
67053;SDS011;53960;51.826;5.850;2023-07-29T14:43:07;5.97;;;1.87;;
67053;SDS011;53960;51.826;5.850;2023-07-29T14:45:32;6.57;;;2.10;;